createdAt,value
2018-12-31T00:00:56.686Z,0.99
2018-12-31T00:01:56.635Z,1.06
2018-12-31T00:02:56.657Z,1.02
2018-12-31T00:03:56.678Z,1.00
2018-12-31T00:04:56.705Z,1.00
2018-12-31T00:05:56.726Z,1.04
2018-12-31T00:06:56.749Z,1.10
2018-12-31T00:07:56.771Z,0.99
2018-12-31T00:08:56.793Z,0.96
2018-12-31T00:09:56.822Z,0.99
2018-12-31T00:10:56.886Z,1.00
2018-12-31T00:11:56.863Z,0.99
2018-12-31T00:12:56.885Z,1.10
2018-12-31T00:13:56.911Z,1.06
2018-12-31T00:14:56.936Z,0.94
2018-12-31T00:15:56.957Z,1.00
2018-12-31T00:16:56.981Z,1.10
2018-12-31T00:17:57.001Z,1.04
2018-12-31T00:18:57.024Z,0.99
2018-12-31T00:19:57.052Z,1.06
2018-12-31T00:20:57.070Z,0.94
2018-12-31T00:21:57.098Z,1.07
2018-12-31T00:22:57.117Z,1.07
2018-12-31T00:23:57.142Z,0.95
2018-12-31T00:24:57.168Z,1.14
2018-12-31T00:25:57.188Z,1.03
2018-12-31T00:26:57.209Z,0.95
2018-12-31T00:27:57.237Z,1.07
2018-12-31T00:28:57.258Z,1.02
2018-12-31T00:29:57.278Z,1.13
2018-12-31T00:30:57.300Z,1.03
2018-12-31T00:31:57.325Z,1.00
2018-12-31T00:32:57.347Z,1.04
2018-12-31T00:33:57.374Z,1.02
2018-12-31T00:34:57.394Z,1.04
2018-12-31T00:35:57.420Z,1.00
2018-12-31T00:36:57.441Z,1.00
2018-12-31T00:37:57.466Z,1.02
2018-12-31T00:38:57.490Z,1.00
2018-12-31T00:39:57.509Z,1.07
2018-12-31T00:40:57.531Z,0.94
2018-12-31T00:41:57.556Z,1.03
2018-12-31T00:42:59.172Z,1.10
2018-12-31T00:43:57.603Z,1.07
2018-12-31T00:44:57.624Z,0.92
2018-12-31T00:45:57.647Z,1.03
2018-12-31T00:46:57.671Z,1.10
2018-12-31T00:47:57.693Z,0.99
2018-12-31T00:48:57.716Z,1.07
2018-12-31T00:49:57.740Z,1.07
2018-12-31T00:50:57.765Z,1.07
2018-12-31T00:51:57.788Z,1.13
2018-12-31T00:52:57.809Z,1.06
2018-12-31T00:53:57.832Z,1.12
2018-12-31T00:54:57.859Z,1.09
2018-12-31T00:55:57.877Z,1.09
2018-12-31T00:56:57.902Z,1.07
2018-12-31T00:57:57.927Z,1.02
2018-12-31T00:58:57.947Z,1.07
2018-12-31T00:59:57.970Z,1.03
2018-12-31T01:00:57.996Z,1.14
2018-12-31T01:01:58.019Z,1.06
2018-12-31T01:02:58.048Z,1.12
2018-12-31T01:03:58.062Z,1.10
2018-12-31T01:04:58.087Z,1.10
2018-12-31T01:05:58.112Z,1.07
2018-12-31T01:06:58.133Z,1.10
2018-12-31T01:07:58.155Z,1.10
2018-12-31T01:08:58.180Z,1.09
2018-12-31T01:09:58.202Z,1.00
2018-12-31T01:10:58.225Z,1.09
2018-12-31T01:11:58.248Z,1.10
2018-12-31T01:12:58.272Z,1.10
2018-12-31T01:13:58.298Z,1.00
2018-12-31T01:14:58.318Z,1.06
2018-12-31T01:15:58.341Z,1.16
2018-12-31T01:16:58.366Z,1.04
2018-12-31T01:17:58.392Z,1.00
2018-12-31T01:18:58.411Z,1.09
2018-12-31T01:19:58.436Z,1.06
2018-12-31T01:20:58.463Z,0.99
2018-12-31T01:21:58.480Z,1.06
2018-12-31T01:22:58.503Z,1.12
2018-12-31T01:23:58.527Z,1.06
2018-12-31T01:24:58.549Z,1.10
2018-12-31T01:25:58.573Z,1.18
2018-12-31T01:26:58.596Z,1.02
2018-12-31T01:27:58.619Z,1.12
2018-12-31T01:28:58.644Z,1.10
2018-12-31T01:29:58.666Z,1.14
2018-12-31T01:30:58.691Z,1.10
2018-12-31T01:31:58.715Z,1.20
2018-12-31T01:32:58.735Z,1.16
2018-12-31T01:33:58.762Z,1.16
2018-12-31T01:34:58.783Z,1.12
2018-12-31T01:35:58.805Z,1.20
2018-12-31T01:36:58.828Z,1.16
2018-12-31T01:37:58.855Z,1.18
2018-12-31T01:38:58.877Z,1.16
2018-12-31T01:39:58.898Z,1.07
2018-12-31T01:40:58.922Z,1.22
2018-12-31T01:41:58.947Z,1.21
2018-12-31T01:42:58.970Z,1.21
2018-12-31T01:43:58.993Z,1.22
2018-12-31T01:44:59.017Z,1.22
2018-12-31T01:45:59.041Z,1.28
2018-12-31T01:46:59.064Z,1.12
2018-12-31T01:47:59.086Z,1.21
2018-12-31T01:48:59.110Z,1.25
2018-12-31T01:49:59.133Z,1.21
2018-12-31T01:50:59.158Z,1.28
2018-12-31T01:51:59.180Z,1.21
2018-12-31T01:52:59.201Z,1.18
2018-12-31T01:53:59.225Z,1.14
2018-12-31T01:54:59.256Z,1.16
2018-12-31T01:55:59.270Z,1.21
2018-12-31T01:56:59.301Z,1.16
2018-12-31T01:57:59.322Z,1.16
2018-12-31T01:58:59.342Z,1.13
2018-12-31T01:59:59.366Z,1.20
2018-12-31T02:00:59.388Z,1.13
2018-12-31T02:01:59.417Z,1.12
2018-12-31T02:02:59.437Z,1.09
2018-12-31T02:03:59.457Z,1.16
2018-12-31T02:04:59.481Z,1.14
2018-12-31T02:05:59.509Z,1.18
2018-12-31T02:06:59.532Z,1.22
2018-12-31T02:07:59.551Z,1.12
2018-12-31T02:08:59.579Z,1.16
2018-12-31T02:09:59.599Z,1.13
2018-12-31T02:10:59.625Z,1.12
2018-12-31T02:11:59.648Z,1.16
2018-12-31T02:12:59.670Z,1.22
2018-12-31T02:13:59.695Z,1.24
2018-12-31T02:14:59.717Z,1.22
2018-12-31T02:15:59.740Z,1.24
2018-12-31T02:16:59.764Z,1.24
2018-12-31T02:17:59.789Z,1.25
2018-12-31T02:18:59.810Z,1.18
2018-12-31T02:19:59.834Z,1.21
2018-12-31T02:20:59.856Z,1.31
2018-12-31T02:21:59.881Z,1.22
2018-12-31T02:22:59.902Z,1.30
2018-12-31T02:23:59.925Z,1.36
2018-12-31T02:24:59.952Z,1.32
2018-12-31T02:25:59.973Z,1.25
2018-12-31T02:26:59.997Z,1.21
2018-12-31T02:28:00.020Z,1.18
2018-12-31T02:29:00.045Z,1.24
2018-12-31T02:30:00.392Z,1.25
2018-12-31T02:31:00.093Z,1.22
2018-12-31T02:32:00.116Z,1.16
2018-12-31T02:33:00.140Z,1.16
2018-12-31T02:34:00.163Z,1.21
2018-12-31T02:35:00.205Z,1.22
2018-12-31T02:36:00.206Z,1.16
2018-12-31T02:37:00.236Z,1.10
2018-12-31T02:38:00.255Z,1.00
2018-12-31T02:39:00.278Z,1.09
2018-12-31T02:40:00.302Z,1.13
2018-12-31T02:41:00.326Z,1.02
2018-12-31T02:42:00.409Z,1.12
2018-12-31T02:43:00.370Z,1.25
2018-12-31T02:44:00.393Z,1.20
2018-12-31T02:45:00.419Z,1.18
2018-12-31T02:46:00.440Z,1.20
2018-12-31T02:47:00.470Z,1.27
2018-12-31T02:48:00.487Z,1.25
2018-12-31T02:49:00.516Z,1.18
2018-12-31T02:50:00.534Z,1.27
2018-12-31T02:51:00.558Z,1.27
2018-12-31T02:52:00.581Z,1.25
2018-12-31T02:53:00.607Z,1.22
2018-12-31T02:54:00.630Z,1.31
2018-12-31T02:55:00.656Z,1.30
2018-12-31T02:56:00.673Z,1.34
2018-12-31T02:57:00.697Z,1.34
2018-12-31T02:58:00.721Z,1.31
2018-12-31T02:59:00.744Z,1.38
2018-12-31T03:00:00.769Z,1.34
2018-12-31T03:01:00.792Z,1.28
2018-12-31T03:02:00.818Z,1.31
2018-12-31T03:03:00.850Z,1.31
2018-12-31T03:04:00.862Z,1.30
2018-12-31T03:05:00.972Z,1.22
2018-12-31T03:06:00.911Z,1.30
2018-12-31T03:07:00.959Z,1.32
2018-12-31T03:08:00.953Z,1.28
2018-12-31T03:09:00.980Z,1.30
2018-12-31T03:10:01.001Z,1.34
2018-12-31T03:11:01.026Z,1.28
2018-12-31T03:12:01.049Z,1.40
2018-12-31T03:13:01.071Z,1.36
2018-12-31T03:14:01.094Z,1.30
2018-12-31T03:15:01.126Z,1.38
2018-12-31T03:16:01.141Z,1.38
2018-12-31T03:17:01.165Z,1.32
2018-12-31T03:18:01.191Z,1.38
2018-12-31T03:19:01.211Z,1.43
2018-12-31T03:20:01.261Z,1.32
2018-12-31T03:21:01.264Z,1.32
2018-12-31T03:22:01.280Z,1.39
2018-12-31T03:23:01.379Z,1.40
2018-12-31T03:24:01.331Z,1.31
2018-12-31T03:25:01.353Z,1.34
2018-12-31T03:26:01.375Z,1.45
2018-12-31T03:27:01.400Z,1.46
2018-12-31T03:28:01.425Z,1.48
2018-12-31T03:29:01.452Z,1.38
2018-12-31T03:30:01.474Z,1.46
2018-12-31T03:31:01.496Z,1.42
2018-12-31T03:32:01.520Z,1.49
2018-12-31T03:33:01.586Z,1.53
2018-12-31T03:34:01.643Z,1.53
2018-12-31T03:35:01.593Z,1.60
2018-12-31T03:36:01.612Z,1.57
2018-12-31T03:37:01.634Z,1.56
2018-12-31T03:38:01.659Z,1.58
2018-12-31T03:39:01.680Z,1.60
2018-12-31T03:40:01.777Z,1.60
2018-12-31T03:41:01.732Z,1.75
2018-12-31T03:42:01.755Z,1.76
2018-12-31T03:43:01.779Z,1.98
2018-12-31T03:44:01.800Z,2.03
2018-12-31T03:45:01.823Z,2.07
2018-12-31T03:46:01.846Z,2.04
2018-12-31T03:47:01.872Z,2.12
2018-12-31T03:48:01.892Z,2.12
2018-12-31T03:49:01.920Z,2.05
2018-12-31T03:50:01.940Z,2.12
2018-12-31T03:51:01.963Z,2.12
2018-12-31T03:52:01.986Z,2.14
2018-12-31T03:53:02.016Z,2.04
2018-12-31T03:54:02.035Z,2.08
2018-12-31T03:55:02.058Z,2.04
2018-12-31T03:56:02.080Z,2.12
2018-12-31T03:57:02.103Z,2.12
2018-12-31T03:58:02.127Z,2.15
2018-12-31T03:59:02.154Z,2.19
2018-12-31T04:00:02.174Z,2.19
2018-12-31T04:01:02.197Z,2.19
2018-12-31T04:02:02.223Z,2.23
2018-12-31T04:03:02.248Z,2.18
2018-12-31T04:04:02.268Z,2.14
2018-12-31T04:05:02.291Z,2.22
2018-12-31T04:06:02.319Z,2.19
2018-12-31T04:07:02.342Z,2.12
2018-12-31T04:08:02.364Z,2.21
2018-12-31T04:09:02.386Z,2.15
2018-12-31T04:10:02.410Z,2.19
2018-12-31T04:11:02.434Z,2.23
2018-12-31T04:12:02.455Z,2.21
2018-12-31T04:13:02.484Z,2.19
2018-12-31T04:14:02.518Z,2.21
2018-12-31T04:15:02.528Z,2.21
2018-12-31T04:16:02.555Z,2.21
2018-12-31T04:17:02.575Z,2.23
2018-12-31T04:18:02.600Z,2.16
2018-12-31T04:19:02.621Z,2.23
2018-12-31T04:20:02.646Z,2.22
2018-12-31T04:21:02.671Z,2.21
2018-12-31T04:22:02.695Z,2.34
2018-12-31T04:23:02.716Z,2.34
2018-12-31T04:24:02.739Z,2.33
2018-12-31T04:25:02.766Z,2.26
2018-12-31T04:26:02.788Z,2.19
2018-12-31T04:27:02.811Z,2.18
2018-12-31T04:28:02.835Z,2.25
2018-12-31T04:29:02.863Z,2.23
2018-12-31T04:30:02.883Z,2.21
2018-12-31T04:31:02.906Z,2.23
2018-12-31T04:32:02.928Z,2.22
2018-12-31T04:33:02.954Z,2.23
2018-12-31T04:34:02.976Z,2.23
2018-12-31T04:35:03.002Z,2.34
2018-12-31T04:36:03.022Z,2.32
2018-12-31T04:37:03.047Z,2.36
2018-12-31T04:38:03.070Z,2.34
2018-12-31T04:39:03.094Z,2.34
2018-12-31T04:40:03.117Z,2.30
2018-12-31T04:41:03.142Z,2.36
2018-12-31T04:42:03.166Z,2.30
2018-12-31T04:43:03.190Z,2.30
2018-12-31T04:44:03.214Z,2.39
2018-12-31T04:45:03.239Z,2.36
2018-12-31T04:46:03.262Z,2.41
2018-12-31T04:47:03.283Z,2.37
2018-12-31T04:48:03.311Z,2.32
2018-12-31T04:49:03.331Z,2.34
2018-12-31T04:50:03.355Z,2.32
2018-12-31T04:51:03.393Z,2.40
2018-12-31T04:52:03.406Z,2.44
2018-12-31T04:53:03.448Z,2.43
2018-12-31T04:54:03.453Z,2.47
2018-12-31T04:55:03.476Z,2.50
2018-12-31T04:56:03.502Z,2.44
2018-12-31T04:57:03.522Z,2.46
2018-12-31T04:58:03.546Z,2.40
2018-12-31T04:59:03.570Z,2.51
2018-12-31T05:00:03.593Z,2.44
2018-12-31T05:01:03.622Z,2.50
2018-12-31T05:02:03.644Z,2.52
2018-12-31T05:03:03.667Z,2.55
2018-12-31T05:04:03.690Z,2.64
2018-12-31T05:05:03.711Z,2.59
2018-12-31T05:06:03.738Z,2.64
2018-12-31T05:07:03.761Z,2.64
2018-12-31T05:08:03.783Z,2.58
2018-12-31T05:09:03.808Z,2.62
2018-12-31T05:10:03.834Z,2.68
2018-12-31T05:11:03.860Z,2.69
2018-12-31T05:12:03.877Z,2.62
2018-12-31T05:13:03.902Z,2.58
2018-12-31T05:14:03.926Z,2.64
2018-12-31T05:15:03.950Z,2.59
2018-12-31T05:16:03.975Z,2.68
2018-12-31T05:17:03.998Z,2.58
2018-12-31T05:18:04.022Z,2.64
2018-12-31T05:19:04.046Z,2.62
2018-12-31T05:20:04.075Z,2.79
2018-12-31T05:21:04.094Z,2.61
2018-12-31T05:22:04.118Z,2.73
2018-12-31T05:23:05.385Z,2.76
2018-12-31T05:24:04.167Z,2.72
2018-12-31T05:25:04.192Z,2.65
2018-12-31T05:26:04.213Z,2.68
2018-12-31T05:27:04.243Z,2.68
2018-12-31T05:28:04.262Z,2.69
2018-12-31T05:29:04.285Z,2.59
2018-12-31T05:30:04.313Z,2.62
2018-12-31T05:31:04.334Z,2.62
2018-12-31T05:32:04.359Z,2.62
2018-12-31T05:33:04.399Z,2.70
2018-12-31T05:34:04.407Z,2.58
2018-12-31T05:35:04.431Z,2.59
2018-12-31T05:36:04.455Z,2.55
2018-12-31T05:37:04.478Z,2.61
2018-12-31T05:38:04.506Z,2.52
2018-12-31T05:39:04.530Z,2.61
2018-12-31T05:40:04.553Z,2.62
2018-12-31T05:41:04.575Z,2.52
2018-12-31T05:42:04.601Z,2.61
2018-12-31T05:43:04.624Z,2.51
2018-12-31T05:44:04.647Z,2.51
2018-12-31T05:45:04.671Z,2.55
2018-12-31T05:46:04.698Z,2.52
2018-12-31T05:47:04.720Z,2.51
2018-12-31T05:48:04.742Z,2.50
2018-12-31T05:49:04.767Z,2.55
2018-12-31T05:50:04.790Z,2.44
2018-12-31T05:51:04.816Z,2.50
2018-12-31T05:52:04.840Z,2.46
2018-12-31T05:53:04.864Z,2.43
2018-12-31T05:54:04.887Z,2.46
2018-12-31T05:55:04.910Z,2.50
2018-12-31T05:56:04.935Z,2.34
2018-12-31T05:57:04.959Z,2.44
2018-12-31T05:58:04.981Z,2.44
2018-12-31T05:59:05.006Z,2.44
2018-12-31T06:00:05.031Z,2.46
2018-12-31T06:01:05.057Z,2.47
2018-12-31T06:02:05.078Z,2.34
2018-12-31T06:03:05.107Z,2.41
2018-12-31T06:04:05.126Z,2.47
2018-12-31T06:05:05.151Z,2.37
2018-12-31T06:06:05.176Z,2.34
2018-12-31T06:07:05.200Z,2.39
2018-12-31T06:08:05.225Z,2.30
2018-12-31T06:09:05.245Z,2.34
2018-12-31T06:10:05.271Z,2.30
2018-12-31T06:11:05.297Z,2.25
2018-12-31T06:12:05.318Z,2.30
2018-12-31T06:13:05.341Z,2.22
2018-12-31T06:14:05.365Z,2.23
2018-12-31T06:15:05.391Z,2.21
2018-12-31T06:16:05.416Z,2.21
2018-12-31T06:17:05.437Z,2.21
2018-12-31T06:18:05.464Z,2.21
2018-12-31T06:19:05.485Z,2.22
2018-12-31T06:20:05.507Z,2.19
2018-12-31T06:21:05.538Z,2.22
2018-12-31T06:22:05.559Z,2.16
2018-12-31T06:23:05.581Z,2.12
2018-12-31T06:24:05.602Z,2.12
2018-12-31T06:25:05.629Z,2.16
2018-12-31T06:26:05.656Z,2.14
2018-12-31T06:27:05.674Z,2.08
2018-12-31T06:28:05.697Z,2.18
2018-12-31T06:29:05.721Z,2.10
2018-12-31T06:30:05.747Z,2.21
2018-12-31T06:31:05.774Z,2.14
2018-12-31T06:32:05.799Z,2.22
2018-12-31T06:33:05.820Z,2.12
2018-12-31T06:34:05.841Z,2.18
2018-12-31T06:35:05.866Z,2.22
2018-12-31T06:36:05.901Z,2.16
2018-12-31T06:37:05.912Z,2.21
2018-12-31T06:38:05.938Z,2.19
2018-12-31T06:39:05.961Z,2.22
2018-12-31T06:40:05.987Z,2.21
2018-12-31T06:41:06.009Z,2.22
2018-12-31T06:42:06.033Z,2.15
2018-12-31T06:43:06.062Z,2.16
2018-12-31T06:44:06.079Z,2.18
2018-12-31T06:45:06.103Z,2.16
2018-12-31T06:46:06.126Z,2.08
2018-12-31T06:47:06.152Z,2.14
2018-12-31T06:48:06.175Z,2.10
2018-12-31T06:49:06.199Z,2.10
2018-12-31T06:50:06.222Z,2.12
2018-12-31T06:51:06.246Z,2.15
2018-12-31T06:52:06.269Z,2.18
2018-12-31T06:53:06.293Z,2.19
2018-12-31T06:54:06.318Z,2.19
2018-12-31T06:55:06.347Z,2.16
2018-12-31T06:56:06.365Z,2.16
2018-12-31T06:57:06.392Z,2.22
2018-12-31T06:58:06.413Z,2.21
2018-12-31T06:59:06.439Z,2.16
2018-12-31T07:00:06.464Z,2.23
2018-12-31T07:01:06.484Z,2.14
2018-12-31T07:02:06.510Z,2.23
2018-12-31T07:03:06.536Z,2.19
2018-12-31T07:04:06.556Z,2.15
2018-12-31T07:05:06.580Z,2.15
2018-12-31T07:06:06.607Z,2.10
2018-12-31T07:07:06.633Z,2.10
2018-12-31T07:08:06.654Z,2.12
2018-12-31T07:09:06.675Z,2.10
2018-12-31T07:10:06.699Z,2.04
2018-12-31T07:11:06.726Z,2.12
2018-12-31T07:12:06.749Z,2.14
2018-12-31T07:13:06.772Z,2.10
2018-12-31T07:14:06.798Z,1.93
2018-12-31T07:15:06.819Z,2.04
2018-12-31T07:16:06.842Z,2.10
2018-12-31T07:17:06.867Z,2.04
2018-12-31T07:18:06.889Z,2.04
2018-12-31T07:19:06.917Z,2.05
2018-12-31T07:20:06.937Z,2.08
2018-12-31T07:21:06.967Z,2.04
2018-12-31T07:22:06.991Z,2.07
2018-12-31T07:23:07.010Z,2.01
2018-12-31T07:24:07.034Z,2.10
2018-12-31T07:25:07.058Z,2.14
2018-12-31T07:26:07.085Z,2.21
2018-12-31T07:27:07.104Z,2.23
2018-12-31T07:28:07.128Z,2.21
2018-12-31T07:29:07.154Z,2.22
2018-12-31T07:30:07.190Z,2.28
2018-12-31T07:31:07.203Z,2.23
2018-12-31T07:32:07.229Z,2.26
2018-12-31T07:33:07.248Z,2.22
2018-12-31T07:34:07.272Z,2.32
2018-12-31T07:35:07.295Z,2.36
2018-12-31T07:36:07.320Z,2.33
2018-12-31T07:37:07.344Z,2.30
2018-12-31T07:38:07.368Z,2.21
2018-12-31T07:39:07.392Z,2.18
2018-12-31T07:40:07.418Z,2.18
2018-12-31T07:41:07.441Z,2.19
2018-12-31T07:42:07.462Z,2.21
2018-12-31T07:43:07.486Z,2.21
2018-12-31T07:44:07.509Z,2.23
2018-12-31T07:45:07.533Z,2.19
2018-12-31T07:46:07.557Z,2.15
2018-12-31T07:47:07.583Z,2.14
2018-12-31T07:48:07.602Z,2.22
2018-12-31T07:49:07.628Z,2.21
2018-12-31T07:50:07.651Z,2.18
2018-12-31T07:51:07.682Z,2.19
2018-12-31T07:52:07.702Z,2.16
2018-12-31T07:53:07.726Z,2.23
2018-12-31T07:54:07.748Z,2.21
2018-12-31T07:55:07.771Z,2.26
2018-12-31T07:56:07.797Z,2.22
2018-12-31T07:57:07.818Z,2.16
2018-12-31T07:58:07.842Z,2.15
2018-12-31T07:59:07.866Z,2.10
2018-12-31T08:00:07.917Z,2.10
2018-12-31T08:01:07.914Z,2.07
2018-12-31T08:02:07.938Z,2.10
2018-12-31T08:03:07.964Z,2.12
2018-12-31T08:04:07.990Z,2.05
2018-12-31T08:05:08.009Z,2.10
2018-12-31T08:06:08.054Z,2.08
2018-12-31T08:07:08.068Z,2.10
2018-12-31T08:08:08.083Z,2.10
2018-12-31T08:09:08.104Z,2.03
2018-12-31T08:10:08.129Z,2.12
2018-12-31T08:11:08.152Z,2.07
2018-12-31T08:12:08.179Z,2.10
2018-12-31T08:13:08.201Z,2.03
2018-12-31T08:14:08.239Z,2.15
2018-12-31T08:15:08.248Z,2.12
2018-12-31T08:16:08.276Z,2.07
2018-12-31T08:17:08.296Z,2.07
2018-12-31T08:18:08.324Z,2.08
2018-12-31T08:19:08.347Z,2.10
2018-12-31T08:20:08.379Z,2.04
2018-12-31T08:21:08.393Z,2.01
2018-12-31T08:22:08.417Z,2.08
2018-12-31T08:23:08.442Z,2.05
2018-12-31T08:24:08.471Z,2.04
2018-12-31T08:25:08.489Z,2.04
2018-12-31T08:26:08.512Z,2.03
2018-12-31T08:27:08.536Z,1.98
2018-12-31T08:28:08.559Z,2.03
2018-12-31T08:29:08.586Z,2.05
2018-12-31T08:30:08.612Z,2.05
2018-12-31T08:31:08.635Z,2.01
2018-12-31T08:32:08.657Z,2.03
2018-12-31T08:33:08.680Z,2.04
2018-12-31T08:34:08.705Z,2.03
2018-12-31T08:35:08.756Z,2.10
2018-12-31T08:36:08.754Z,2.01
2018-12-31T08:37:08.779Z,2.12
2018-12-31T08:38:08.803Z,2.10
2018-12-31T08:39:08.828Z,2.08
2018-12-31T08:40:08.854Z,2.04
2018-12-31T08:41:08.874Z,2.07
2018-12-31T08:42:08.899Z,2.10
2018-12-31T08:43:08.932Z,2.12
2018-12-31T08:44:08.946Z,2.07
2018-12-31T08:45:08.971Z,2.14
2018-12-31T08:46:08.995Z,2.08
2018-12-31T08:47:09.020Z,2.19
2018-12-31T08:48:09.044Z,2.22
2018-12-31T08:49:09.070Z,2.18
2018-12-31T08:50:09.096Z,2.22
2018-12-31T08:51:09.127Z,2.18
2018-12-31T08:52:09.142Z,2.22
2018-12-31T08:53:09.170Z,2.16
2018-12-31T08:54:09.196Z,2.19
2018-12-31T08:55:09.219Z,2.18
2018-12-31T08:56:09.240Z,2.16
2018-12-31T08:57:09.267Z,2.16
2018-12-31T08:58:09.289Z,2.12
2018-12-31T08:59:09.313Z,2.12
2018-12-31T09:00:09.339Z,2.16
2018-12-31T09:01:09.363Z,2.19
2018-12-31T09:02:09.386Z,2.19
2018-12-31T09:03:09.412Z,2.26
2018-12-31T09:04:09.438Z,2.25
2018-12-31T09:05:09.460Z,2.18
2018-12-31T09:06:09.487Z,2.30
2018-12-31T09:07:09.509Z,2.36
2018-12-31T09:08:09.532Z,2.36
2018-12-31T09:09:09.557Z,2.40
2018-12-31T09:10:09.585Z,2.47
2018-12-31T09:11:09.610Z,2.50
2018-12-31T09:12:09.632Z,2.52
2018-12-31T09:13:09.661Z,2.61
2018-12-31T09:14:09.678Z,2.51
2018-12-31T09:15:09.705Z,2.55
2018-12-31T09:16:09.729Z,2.62
2018-12-31T09:17:09.753Z,2.61
2018-12-31T09:18:09.777Z,2.54
2018-12-31T09:19:09.800Z,2.65
2018-12-31T09:20:09.826Z,2.59
2018-12-31T09:21:09.851Z,2.55
2018-12-31T09:22:09.884Z,2.59
2018-12-31T09:23:09.900Z,2.59
2018-12-31T09:24:09.925Z,2.62
2018-12-31T09:25:09.952Z,2.51
2018-12-31T09:26:09.972Z,2.52
2018-12-31T09:27:10.000Z,2.64
2018-12-31T09:28:10.022Z,2.57
2018-12-31T09:29:10.049Z,2.58
2018-12-31T09:30:10.074Z,2.58
2018-12-31T09:31:10.105Z,2.61
2018-12-31T09:32:10.123Z,2.59
2018-12-31T09:33:10.146Z,2.46
2018-12-31T09:34:10.170Z,2.62
2018-12-31T09:35:10.193Z,2.57
2018-12-31T09:36:10.222Z,2.52
2018-12-31T09:37:10.242Z,2.54
2018-12-31T09:38:10.266Z,2.61
2018-12-31T09:39:10.295Z,2.55
2018-12-31T09:40:10.318Z,2.59
2018-12-31T09:41:10.343Z,2.65
2018-12-31T09:42:10.365Z,2.62
2018-12-31T09:43:10.391Z,2.58
2018-12-31T09:44:10.414Z,2.58
2018-12-31T09:45:10.439Z,2.58
2018-12-31T09:46:10.465Z,2.64
2018-12-31T09:47:10.492Z,2.58
2018-12-31T09:48:10.515Z,2.65
2018-12-31T09:49:10.540Z,2.72
2018-12-31T09:50:10.564Z,2.73
2018-12-31T09:51:10.591Z,2.69
2018-12-31T09:52:10.611Z,2.79
2018-12-31T09:53:12.537Z,2.80
2018-12-31T09:54:10.662Z,2.93
2018-12-31T09:55:10.690Z,2.95
2018-12-31T09:56:10.713Z,2.94
2018-12-31T09:57:10.738Z,2.97
2018-12-31T09:58:10.767Z,3.00
2018-12-31T09:59:10.787Z,2.95
2018-12-31T10:00:10.811Z,3.03
2018-12-31T10:01:10.835Z,3.01
2018-12-31T10:02:10.862Z,2.98
2018-12-31T10:03:10.885Z,3.06
2018-12-31T10:04:10.913Z,3.12
2018-12-31T10:05:10.937Z,3.21
2018-12-31T10:06:10.960Z,3.16
2018-12-31T10:07:10.986Z,3.27
2018-12-31T10:08:11.012Z,3.22
2018-12-31T10:09:12.050Z,3.18
2018-12-31T10:10:11.080Z,3.31
2018-12-31T10:11:11.104Z,3.29
2018-12-31T10:12:11.112Z,3.30
2018-12-31T10:13:11.138Z,3.19
2018-12-31T10:14:11.165Z,3.22
2018-12-31T10:15:11.190Z,3.16
2018-12-31T10:16:11.216Z,3.15
2018-12-31T10:17:11.241Z,3.08
2018-12-31T10:18:11.266Z,3.06
2018-12-31T10:19:11.289Z,3.01
2018-12-31T10:20:11.317Z,3.05
2018-12-31T10:21:11.341Z,3.05
2018-12-31T10:22:11.366Z,3.05
2018-12-31T10:23:11.397Z,2.94
2018-12-31T10:24:11.417Z,2.98
2018-12-31T10:25:11.447Z,2.97
2018-12-31T10:26:11.469Z,2.95
2018-12-31T10:27:11.496Z,2.91
2018-12-31T10:28:11.522Z,3.01
2018-12-31T10:29:11.547Z,2.95
2018-12-31T10:30:11.573Z,2.94
2018-12-31T10:31:11.601Z,2.97
2018-12-31T10:32:11.623Z,2.97
2018-12-31T10:33:11.644Z,3.03
2018-12-31T10:34:11.673Z,3.06
2018-12-31T10:35:11.698Z,3.11
2018-12-31T10:36:11.726Z,3.12
2018-12-31T10:37:11.747Z,3.13
2018-12-31T10:38:11.770Z,3.18
2018-12-31T10:39:11.797Z,3.11
2018-12-31T10:40:11.821Z,3.18
2018-12-31T10:41:11.846Z,3.16
2018-12-31T10:42:11.873Z,3.18
2018-12-31T10:43:11.897Z,3.19
2018-12-31T10:44:11.925Z,3.26
2018-12-31T10:45:11.949Z,3.15
2018-12-31T10:46:11.974Z,3.13
2018-12-31T10:47:12.002Z,3.16
2018-12-31T10:48:12.024Z,3.16
2018-12-31T10:49:12.049Z,3.30
2018-12-31T10:50:12.076Z,3.33
2018-12-31T10:51:12.101Z,3.52
2018-12-31T10:52:12.128Z,3.52
2018-12-31T10:53:12.154Z,3.50
2018-12-31T10:54:12.181Z,3.41
2018-12-31T10:55:12.204Z,3.45
2018-12-31T10:56:12.235Z,3.58
2018-12-31T10:57:12.255Z,3.52
2018-12-31T10:58:12.283Z,3.58
2018-12-31T10:59:12.308Z,3.52
2018-12-31T11:00:12.333Z,3.61
2018-12-31T11:01:12.361Z,3.61
2018-12-31T11:02:12.385Z,3.50
2018-12-31T11:03:12.412Z,3.34
2018-12-31T11:04:12.438Z,3.21
2018-12-31T11:05:12.463Z,3.19
2018-12-31T11:06:12.490Z,3.13
2018-12-31T11:07:12.513Z,3.16
2018-12-31T11:08:12.542Z,3.18
2018-12-31T11:09:12.565Z,3.16
2018-12-31T11:10:12.592Z,3.22
2018-12-31T11:11:12.616Z,3.18
2018-12-31T11:12:12.643Z,3.16
2018-12-31T11:13:12.668Z,3.15
2018-12-31T11:14:12.699Z,3.12
2018-12-31T11:15:12.722Z,3.21
2018-12-31T11:16:12.744Z,3.11
2018-12-31T11:17:12.771Z,2.97
2018-12-31T11:18:12.798Z,3.03
2018-12-31T11:19:12.825Z,2.98
2018-12-31T11:20:12.846Z,3.01
2018-12-31T11:21:12.876Z,2.95
2018-12-31T11:22:12.898Z,3.05
2018-12-31T11:23:12.925Z,3.03
2018-12-31T11:24:12.951Z,2.95
2018-12-31T11:25:12.977Z,2.95
2018-12-31T11:26:13.001Z,3.00
2018-12-31T11:27:13.027Z,2.97
2018-12-31T11:28:13.053Z,2.85
2018-12-31T11:29:13.083Z,2.79
2018-12-31T11:30:13.103Z,2.82
2018-12-31T11:31:13.130Z,2.82
2018-12-31T11:32:13.152Z,2.82
2018-12-31T11:33:13.178Z,2.76
2018-12-31T11:34:13.204Z,2.73
2018-12-31T11:35:13.230Z,2.62
2018-12-31T11:36:13.254Z,2.55
2018-12-31T11:37:13.282Z,2.52
2018-12-31T11:38:13.303Z,2.58
2018-12-31T11:39:13.330Z,2.54
2018-12-31T11:40:13.368Z,2.46
2018-12-31T11:41:13.383Z,2.46
2018-12-31T11:42:13.410Z,2.52
2018-12-31T11:43:13.432Z,2.50
2018-12-31T11:44:13.457Z,2.50
2018-12-31T11:45:13.480Z,2.46
2018-12-31T11:46:13.505Z,2.47
2018-12-31T11:47:13.532Z,2.37
2018-12-31T11:48:13.554Z,2.37
2018-12-31T11:49:13.579Z,2.46
2018-12-31T11:50:13.602Z,2.51
2018-12-31T11:51:13.630Z,2.43
2018-12-31T11:52:13.657Z,2.46
2018-12-31T11:53:13.679Z,2.44
2018-12-31T11:54:13.701Z,2.43
2018-12-31T11:55:13.728Z,2.40
2018-12-31T11:56:13.752Z,2.46
2018-12-31T11:57:13.776Z,2.51
2018-12-31T11:58:13.803Z,2.46
2018-12-31T11:59:13.828Z,2.41
2018-12-31T12:00:13.854Z,2.37
2018-12-31T12:01:13.881Z,2.33
2018-12-31T12:02:13.898Z,2.32
2018-12-31T12:03:13.933Z,2.21
2018-12-31T12:04:13.949Z,2.26
2018-12-31T12:05:13.977Z,2.30
2018-12-31T12:06:13.999Z,2.21
2018-12-31T12:07:14.027Z,2.26
2018-12-31T12:08:14.050Z,2.23
2018-12-31T12:09:14.071Z,2.28
2018-12-31T12:10:14.097Z,2.21
2018-12-31T12:11:14.120Z,2.28
2018-12-31T12:12:14.145Z,2.22
2018-12-31T12:13:14.170Z,2.19
2018-12-31T12:14:14.195Z,2.30
2018-12-31T12:15:14.220Z,2.32
2018-12-31T12:16:14.248Z,2.21
2018-12-31T12:17:14.269Z,2.25
2018-12-31T12:18:14.292Z,2.30
2018-12-31T12:19:14.318Z,2.21
2018-12-31T12:20:14.358Z,2.25
2018-12-31T12:21:14.369Z,2.22
2018-12-31T12:22:14.394Z,2.23
2018-12-31T12:23:14.415Z,2.22
2018-12-31T12:24:14.439Z,2.19
2018-12-31T12:25:14.463Z,2.22
2018-12-31T12:26:14.492Z,2.26
2018-12-31T12:27:14.515Z,2.22
2018-12-31T12:28:14.537Z,2.28
2018-12-31T12:29:14.564Z,2.30
2018-12-31T12:30:14.586Z,2.30
2018-12-31T12:31:14.610Z,2.22
2018-12-31T12:32:14.634Z,2.23
2018-12-31T12:33:14.659Z,2.25
2018-12-31T12:34:14.683Z,2.21
2018-12-31T12:35:14.709Z,2.22
2018-12-31T12:36:14.734Z,2.21
2018-12-31T12:37:14.759Z,2.14
2018-12-31T12:38:14.781Z,2.10
2018-12-31T12:39:14.809Z,2.23
2018-12-31T12:40:14.830Z,2.15
2018-12-31T12:41:14.854Z,2.12
2018-12-31T12:42:14.879Z,2.14
2018-12-31T12:43:14.903Z,2.14
2018-12-31T12:44:14.926Z,2.12
2018-12-31T12:45:14.955Z,2.12
2018-12-31T12:46:14.978Z,2.10
2018-12-31T12:47:15.005Z,2.14
2018-12-31T12:48:15.023Z,2.05
2018-12-31T12:49:15.049Z,2.10
2018-12-31T12:50:15.073Z,2.07
2018-12-31T12:51:15.100Z,2.10
2018-12-31T12:52:15.121Z,2.05
2018-12-31T12:53:15.228Z,2.08
2018-12-31T12:54:15.169Z,2.07
2018-12-31T12:55:15.197Z,2.08
2018-12-31T12:56:15.218Z,2.04
2018-12-31T12:57:15.242Z,2.10
2018-12-31T12:58:15.268Z,2.08
2018-12-31T12:59:15.292Z,2.12
2018-12-31T13:00:15.317Z,2.07
2018-12-31T13:01:15.339Z,2.03
2018-12-31T13:02:15.364Z,2.01
2018-12-31T13:03:15.387Z,2.00
2018-12-31T13:04:15.410Z,1.98
2018-12-31T13:05:15.436Z,1.97
2018-12-31T13:06:15.462Z,1.88
2018-12-31T13:07:15.485Z,1.88
2018-12-31T13:08:15.507Z,1.75
2018-12-31T13:09:15.531Z,1.82
2018-12-31T13:10:15.557Z,1.74
2018-12-31T13:11:15.581Z,1.71
2018-12-31T13:12:15.603Z,1.66
2018-12-31T13:13:15.628Z,1.60
2018-12-31T13:14:15.651Z,1.67
2018-12-31T13:15:15.675Z,1.50
2018-12-31T13:16:15.700Z,1.60
2018-12-31T13:17:15.726Z,1.52
2018-12-31T13:18:15.745Z,1.60
2018-12-31T13:19:15.774Z,1.60